createdAt,value
2018-06-10T00:01:01.699Z,11.25
2018-06-10T00:03:29.946Z,10.90
2018-06-10T00:05:58.184Z,11.00
2018-06-10T00:08:26.399Z,10.30
2018-06-10T00:10:54.663Z,14.18
2018-06-10T00:13:22.871Z,15.77
2018-06-10T00:15:51.125Z,12.20
2018-06-10T00:18:19.370Z,10.58
2018-06-10T00:20:47.553Z,12.37
2018-06-10T00:23:15.773Z,13.13
2018-06-10T00:25:43.965Z,10.77
2018-06-10T00:28:12.322Z,11.78
2018-06-10T00:30:40.565Z,11.90
2018-06-10T00:33:08.769Z,12.95
2018-06-10T00:35:36.998Z,10.95
2018-06-10T00:38:05.258Z,9.70
2018-06-10T00:40:33.257Z,13.35
2018-06-10T00:43:01.509Z,13.08
2018-06-10T00:45:29.810Z,12.80
2018-06-10T00:47:58.048Z,14.40
2018-06-10T00:50:26.303Z,12.00
2018-06-10T00:52:54.535Z,12.75
2018-06-10T00:55:22.775Z,11.35
2018-06-10T00:57:51.001Z,12.18
2018-06-10T01:00:19.265Z,11.50
2018-06-10T01:02:47.486Z,11.60
2018-06-10T01:05:15.727Z,9.18
2018-06-10T01:07:43.954Z,11.57
2018-06-10T01:10:12.172Z,8.65
2018-06-10T01:12:40.398Z,10.95
2018-06-10T01:15:08.602Z,12.05
2018-06-10T01:17:36.817Z,13.43
2018-06-10T01:20:05.054Z,13.35
2018-06-10T01:22:33.264Z,13.28
2018-06-10T01:25:01.493Z,11.35
2018-06-10T01:27:29.682Z,12.65
2018-06-10T01:29:57.942Z,12.67
2018-06-10T01:32:26.157Z,13.50
2018-06-10T01:34:54.345Z,12.53
2018-06-10T01:37:22.557Z,13.22
2018-06-10T01:39:50.760Z,12.93
2018-06-10T01:42:19.005Z,11.80
2018-06-10T01:44:47.226Z,11.30
2018-06-10T01:47:15.479Z,11.18
2018-06-10T01:49:43.800Z,12.15
2018-06-10T01:52:12.042Z,11.30
2018-06-10T01:54:40.277Z,10.00
2018-06-10T01:57:08.529Z,9.25
2018-06-10T01:59:36.722Z,9.53
2018-06-10T02:02:04.973Z,9.33
2018-06-10T02:04:33.221Z,8.50
2018-06-10T02:07:01.473Z,8.28
2018-06-10T02:09:29.733Z,7.90
2018-06-10T02:11:57.939Z,7.60
2018-06-10T02:14:26.175Z,6.87
2018-06-10T02:16:54.416Z,7.25
2018-06-10T02:19:22.641Z,8.28
2018-06-10T02:21:50.853Z,6.37
2018-06-10T02:24:19.041Z,6.12
2018-06-10T02:26:47.273Z,6.30
2018-06-10T02:29:15.458Z,5.45
2018-06-10T02:31:43.721Z,5.90
2018-06-10T02:34:11.974Z,7.70
2018-06-10T02:36:40.166Z,6.42
2018-06-10T02:39:08.408Z,5.00
2018-06-10T02:41:36.610Z,8.00
2018-06-10T02:44:11.394Z,7.53
2018-06-10T02:46:39.625Z,6.00
2018-06-10T02:49:07.818Z,6.20
2018-06-10T02:51:36.118Z,6.50
2018-06-10T02:54:04.442Z,6.12
2018-06-10T02:56:32.690Z,6.33
2018-06-10T02:59:00.945Z,9.90
2018-06-10T03:03:36.733Z,8.00
2018-06-10T03:06:05.258Z,6.78
2018-06-10T03:08:33.498Z,8.15
2018-06-10T03:11:01.742Z,7.40
2018-06-10T03:13:29.956Z,6.67
2018-06-10T03:15:58.235Z,8.53
2018-06-10T03:18:26.458Z,6.47
2018-06-10T03:20:54.441Z,6.55
2018-06-10T03:23:22.689Z,8.33
2018-06-10T03:25:50.905Z,7.90
2018-06-10T03:28:19.144Z,7.40
2018-06-10T03:30:47.337Z,6.87
2018-06-10T03:33:15.577Z,7.67
2018-06-10T03:35:43.820Z,7.12
2018-06-10T03:38:12.035Z,7.08
2018-06-10T03:40:40.262Z,7.30
2018-06-10T03:43:08.469Z,6.83
2018-06-10T03:45:36.710Z,7.70
2018-06-10T03:48:04.974Z,7.85
2018-06-10T03:50:33.169Z,7.97
2018-06-10T03:53:01.447Z,7.05
2018-06-10T03:55:29.637Z,6.70
2018-06-10T03:57:57.877Z,7.35
2018-06-10T04:00:26.123Z,6.30
2018-06-10T04:02:54.344Z,8.10
2018-06-10T04:05:22.583Z,7.12
2018-06-10T04:07:50.782Z,7.20
2018-06-10T04:10:19.009Z,8.20
2018-06-10T04:12:47.252Z,9.63
2018-06-10T04:15:15.473Z,7.12
2018-06-10T04:17:43.711Z,8.00
2018-06-10T04:20:11.918Z,7.62
2018-06-10T04:22:40.175Z,7.50
2018-06-10T04:25:08.411Z,8.18
2018-06-10T04:27:36.593Z,8.00
2018-06-10T04:30:04.837Z,8.38
2018-06-10T04:32:33.044Z,7.12
2018-06-10T04:35:01.269Z,7.28
2018-06-10T04:37:29.534Z,8.48
2018-06-10T04:39:57.742Z,7.65
2018-06-10T04:42:25.983Z,9.55
2018-06-10T04:44:54.194Z,8.30
2018-06-10T04:47:22.509Z,10.75
2018-06-10T04:49:50.740Z,10.47
2018-06-10T04:52:18.938Z,10.35
2018-06-10T04:54:47.198Z,13.38
2018-06-10T04:57:15.393Z,10.93
2018-06-10T04:59:43.633Z,10.60
2018-06-10T05:02:11.870Z,10.28
2018-06-10T05:04:40.054Z,11.20
2018-06-10T05:07:08.297Z,12.40
2018-06-10T05:09:36.502Z,11.20
2018-06-10T05:12:04.758Z,11.60
2018-06-10T05:14:33.005Z,11.53
2018-06-10T05:17:01.186Z,11.20
2018-06-10T05:19:29.422Z,11.25
2018-06-10T05:21:57.625Z,11.28
2018-06-10T05:24:25.832Z,11.03
2018-06-10T05:26:54.065Z,11.40
2018-06-10T05:29:22.290Z,11.60
2018-06-10T05:31:50.523Z,9.65
2018-06-10T05:34:18.720Z,11.20
2018-06-10T05:36:46.692Z,10.40
2018-06-10T05:39:14.920Z,10.98
2018-06-10T05:41:43.102Z,10.13
2018-06-10T05:44:11.326Z,11.48
2018-06-10T05:46:39.523Z,10.28
2018-06-10T05:49:07.777Z,10.93
2018-06-10T05:51:36.018Z,9.70
2018-06-10T05:54:04.262Z,10.10
2018-06-10T05:56:32.522Z,11.95
2018-06-10T05:59:00.745Z,13.15
2018-06-10T06:01:29.039Z,9.70
2018-06-10T06:03:57.407Z,10.63
2018-06-10T06:06:25.667Z,9.90
2018-06-10T06:08:53.953Z,9.65
2018-06-10T06:11:22.180Z,9.48
2018-06-10T06:13:50.499Z,10.75
2018-06-10T06:16:18.788Z,9.70
2018-06-10T06:18:47.072Z,10.18
2018-06-10T06:21:15.398Z,9.60
2018-06-10T06:23:43.676Z,10.23
2018-06-10T06:26:11.962Z,10.10
2018-06-10T06:28:40.186Z,9.45
2018-06-10T06:31:08.605Z,10.32
2018-06-10T06:33:36.869Z,9.15
2018-06-10T06:36:05.126Z,9.37
2018-06-10T06:38:33.362Z,11.75
2018-06-10T06:41:01.570Z,11.88
2018-06-10T06:43:29.848Z,11.60
2018-06-10T06:45:58.151Z,11.75
2018-06-10T06:48:26.387Z,11.18
2018-06-10T06:50:54.641Z,13.10
2018-06-10T06:53:22.897Z,12.78
2018-06-10T06:55:51.151Z,12.70
2018-06-10T06:58:19.374Z,12.58
2018-06-10T07:00:47.578Z,11.88
2018-06-10T07:03:15.828Z,11.90
2018-06-10T07:05:44.050Z,11.80
2018-06-10T07:08:12.313Z,11.57
2018-06-10T07:10:40.321Z,13.87
2018-06-10T07:13:08.554Z,14.35
2018-06-10T07:15:36.810Z,14.53
2018-06-10T07:18:05.046Z,15.30
2018-06-10T07:20:33.257Z,13.65
2018-06-10T07:23:01.494Z,14.30
2018-06-10T07:25:29.757Z,14.50
2018-06-10T07:27:58.030Z,15.63
2018-06-10T07:30:26.279Z,14.10
2018-06-10T07:32:54.523Z,14.68
2018-06-10T07:35:22.790Z,14.83
2018-06-10T07:37:50.994Z,13.32
2018-06-10T07:40:19.595Z,15.05
2018-06-10T07:42:47.782Z,15.05
2018-06-10T07:45:16.017Z,14.58
2018-06-10T07:47:44.245Z,15.50
2018-06-10T07:50:12.499Z,13.80
2018-06-10T07:52:40.793Z,15.65
2018-06-10T07:55:08.747Z,15.17
2018-06-10T07:57:37.035Z,13.47
2018-06-10T08:00:05.342Z,14.55
2018-06-10T08:02:33.573Z,14.07
2018-06-10T08:05:02.405Z,14.93
2018-06-10T08:07:31.483Z,13.07
2018-06-10T08:10:02.166Z,14.47
2018-06-10T08:12:30.485Z,15.15
2018-06-10T08:14:58.717Z,14.65
2018-06-10T08:17:26.998Z,16.30
2018-06-10T08:19:55.697Z,16.75
2018-06-10T08:22:24.425Z,15.38
2018-06-10T08:24:53.059Z,14.30
2018-06-10T08:27:21.723Z,15.63
2018-06-10T08:29:50.488Z,15.23
2018-06-10T08:32:19.169Z,17.55
2018-06-10T08:34:47.894Z,18.12
2018-06-10T08:37:16.662Z,18.70
2018-06-10T08:39:45.388Z,18.40
2018-06-10T08:42:14.129Z,16.60
2018-06-10T08:44:42.797Z,17.10
2018-06-10T08:47:11.522Z,20.48
2018-06-10T08:49:40.293Z,19.82
2018-06-10T08:52:08.551Z,19.87
2018-06-10T08:54:36.797Z,19.27
2018-06-10T08:57:05.015Z,17.90
2018-06-10T08:59:33.253Z,18.37
2018-06-10T09:02:01.729Z,19.02
2018-06-10T09:04:29.917Z,19.60
2018-06-10T09:06:58.510Z,20.75
2018-06-10T09:09:26.710Z,21.20
2018-06-10T09:11:54.997Z,18.37
2018-06-10T09:14:23.282Z,18.85
2018-06-10T09:16:51.482Z,16.20
2018-06-10T09:19:19.713Z,15.60
2018-06-10T09:21:47.943Z,14.60
2018-06-10T09:24:16.214Z,14.13
2018-06-10T09:26:44.430Z,14.15
2018-06-10T09:29:12.634Z,16.40
2018-06-10T09:31:40.879Z,16.27
2018-06-10T09:34:09.071Z,16.82
2018-06-10T09:36:37.302Z,16.40
2018-06-10T09:39:07.564Z,18.55
2018-06-10T09:41:35.841Z,15.67
2018-06-10T09:44:04.553Z,14.78
2018-06-10T09:46:32.741Z,14.70
2018-06-10T09:49:00.953Z,14.68
2018-06-10T09:51:29.254Z,15.30
2018-06-10T09:53:57.478Z,15.40
2018-06-10T09:56:25.730Z,15.33
2018-06-10T09:58:53.939Z,15.38
2018-06-10T10:01:22.171Z,17.02
2018-06-10T10:03:50.474Z,15.90
2018-06-10T10:06:18.685Z,16.30
2018-06-10T10:08:46.964Z,15.30
2018-06-10T10:11:15.163Z,15.18
2018-06-10T10:13:43.134Z,15.05
2018-06-10T10:16:11.348Z,15.32
2018-06-10T10:18:39.785Z,15.72
2018-06-10T10:21:08.070Z,16.67
2018-06-10T10:23:36.322Z,15.30
2018-06-10T10:26:04.746Z,20.85
2018-06-10T10:28:33.072Z,15.63
2018-06-10T10:31:01.446Z,14.97
2018-06-10T10:33:29.752Z,15.90
2018-06-10T10:35:57.937Z,14.28
2018-06-10T10:38:28.794Z,15.15
2018-06-10T10:40:57.242Z,15.05
2018-06-10T10:43:25.598Z,16.57
2018-06-10T10:45:53.989Z,16.70
2018-06-10T10:48:22.186Z,16.30
2018-06-10T10:50:50.891Z,16.40
2018-06-10T10:53:19.749Z,14.57
2018-06-10T10:55:48.085Z,14.63
2018-06-10T10:58:16.482Z,12.73
2018-06-10T11:00:44.690Z,15.75
2018-06-10T11:03:12.943Z,17.37
2018-06-10T11:05:41.224Z,17.67
2018-06-10T11:08:09.692Z,16.65
2018-06-10T11:10:37.953Z,16.32
2018-06-10T11:13:05.841Z,15.25
2018-06-10T11:15:34.146Z,15.67
2018-06-10T11:18:02.554Z,16.12
2018-06-10T11:20:31.337Z,14.35
2018-06-10T11:23:00.193Z,14.95
2018-06-10T11:25:28.583Z,11.20
2018-06-10T11:27:56.853Z,13.10
2018-06-10T11:30:25.086Z,11.93
2018-06-10T11:32:53.082Z,11.28
2018-06-10T11:35:21.302Z,14.85
2018-06-10T11:37:49.571Z,14.47
2018-06-10T11:40:17.842Z,12.95
2018-06-10T11:42:46.097Z,13.40
2018-06-10T11:45:14.324Z,13.07
2018-06-10T11:47:42.514Z,12.55
2018-06-10T11:50:10.774Z,12.73
2018-06-10T11:52:39.021Z,12.68
2018-06-10T11:55:07.222Z,13.30
2018-06-10T11:57:35.612Z,12.47
2018-06-10T12:00:04.273Z,13.90
2018-06-10T12:02:32.553Z,12.43
2018-06-10T12:05:00.786Z,13.10
2018-06-10T12:07:29.013Z,12.58
2018-06-10T12:09:57.390Z,12.30
2018-06-10T12:12:25.602Z,11.75
2018-06-10T12:14:53.837Z,11.00
2018-06-10T12:17:22.606Z,12.88
2018-06-10T12:19:50.812Z,10.63
2018-06-10T12:22:19.074Z,11.25
2018-06-10T12:24:47.309Z,10.08
2018-06-10T12:27:15.548Z,10.95
2018-06-10T12:29:43.801Z,11.30
2018-06-10T12:32:12.000Z,12.30
2018-06-10T12:34:40.239Z,10.20
2018-06-10T12:37:08.493Z,10.55
2018-06-10T12:39:36.732Z,10.30
2018-06-10T12:42:05.111Z,9.63
2018-06-10T12:44:33.338Z,10.28
2018-06-10T12:47:01.589Z,9.85
2018-06-10T12:49:29.830Z,10.98
2018-06-10T12:51:58.069Z,10.75
2018-06-10T12:54:26.287Z,10.65
2018-06-10T12:56:54.557Z,11.00
2018-06-10T12:59:22.829Z,11.55
2018-06-10T13:01:51.099Z,10.70
2018-06-10T13:04:19.368Z,11.10
2018-06-10T13:06:47.553Z,11.63
2018-06-10T13:09:15.914Z,13.03
2018-06-10T13:11:44.117Z,12.07
2018-06-10T13:14:12.398Z,12.50
2018-06-10T13:16:40.638Z,11.77
2018-06-10T13:19:09.546Z,12.33
2018-06-10T13:21:37.906Z,11.95
2018-06-10T13:24:06.233Z,12.60
2018-06-10T13:26:34.499Z,13.70
2018-06-10T13:29:02.839Z,11.25
2018-06-10T13:31:31.081Z,10.60
2018-06-10T13:33:59.298Z,10.23
2018-06-10T13:36:27.539Z,9.48
2018-06-10T13:38:55.776Z,8.85
2018-06-10T13:41:24.011Z,9.00
2018-06-10T13:43:52.310Z,14.10
2018-06-10T13:46:20.520Z,9.93
2018-06-10T13:48:48.520Z,9.70
2018-06-10T13:51:16.774Z,10.17
2018-06-10T13:53:45.251Z,11.73
2018-06-10T13:56:13.506Z,11.53
2018-06-10T13:58:41.817Z,12.43
2018-06-10T14:01:10.075Z,11.12
2018-06-10T14:03:38.365Z,12.58
2018-06-10T14:06:06.624Z,12.20
2018-06-10T14:08:34.917Z,11.30
2018-06-10T14:11:03.163Z,11.05
2018-06-10T14:13:31.425Z,12.03
2018-06-10T14:15:59.734Z,11.10
2018-06-10T14:18:27.957Z,12.35
2018-06-10T14:20:56.213Z,11.80
2018-06-10T14:23:24.493Z,11.40
2018-06-10T14:25:52.753Z,11.65
2018-06-10T14:28:21.145Z,12.37
2018-06-10T14:30:49.394Z,12.00
2018-06-10T14:33:17.934Z,11.43
2018-06-10T14:35:46.224Z,10.18
2018-06-10T14:38:14.511Z,9.28
2018-06-10T14:40:42.815Z,10.50
2018-06-10T14:43:11.116Z,9.58
2018-06-10T14:45:39.461Z,9.40
2018-06-10T14:48:07.802Z,9.43
2018-06-10T14:50:36.070Z,8.60
2018-06-10T14:53:04.475Z,7.42
2018-06-10T14:55:32.751Z,8.20
2018-06-10T14:58:02.672Z,9.55
2018-06-10T15:00:31.069Z,8.80
2018-06-10T15:02:59.398Z,10.45
2018-06-10T15:05:27.621Z,9.63
2018-06-10T15:07:55.865Z,7.80
2018-06-10T15:10:24.085Z,8.15
2018-06-10T15:12:52.317Z,8.98
2018-06-10T15:15:20.517Z,8.75
2018-06-10T15:17:48.874Z,8.93
2018-06-10T15:20:17.129Z,8.43
2018-06-10T15:22:45.408Z,8.80
2018-06-10T15:25:13.508Z,9.58
2018-06-10T15:27:41.702Z,9.25
2018-06-10T15:30:09.958Z,10.75
2018-06-10T15:32:38.204Z,10.03
2018-06-10T15:35:06.449Z,12.50
2018-06-10T15:37:34.690Z,9.48
2018-06-10T15:40:02.997Z,9.75
2018-06-10T15:42:31.353Z,9.40
2018-06-10T15:44:59.645Z,8.43
2018-06-10T15:47:27.846Z,8.90
2018-06-10T15:49:56.100Z,8.63
2018-06-10T15:52:24.309Z,8.40
2018-06-10T15:54:52.563Z,7.45
2018-06-10T15:57:20.807Z,7.08
2018-06-10T15:59:49.004Z,7.25
2018-06-10T16:02:17.410Z,7.90
2018-06-10T16:04:45.769Z,7.67
2018-06-10T16:07:14.087Z,8.45
2018-06-10T16:09:42.397Z,8.60
2018-06-10T16:12:10.637Z,7.87
2018-06-10T16:14:38.898Z,9.40
2018-06-10T16:17:07.151Z,8.30
2018-06-10T16:19:35.409Z,7.97
2018-06-10T16:22:03.716Z,6.33
2018-06-10T16:24:31.982Z,7.60
2018-06-10T16:27:00.242Z,6.53
2018-06-10T16:29:28.442Z,9.58
2018-06-10T16:31:56.698Z,8.10
2018-06-10T16:34:24.969Z,7.75
2018-06-10T16:36:53.222Z,7.00
2018-06-10T16:39:21.482Z,6.30
2018-06-10T16:41:49.783Z,5.97
2018-06-10T16:44:18.065Z,5.70
2018-06-10T16:46:46.473Z,6.75
2018-06-10T16:49:14.729Z,6.35
2018-06-10T16:51:42.960Z,5.37
2018-06-10T16:54:11.193Z,5.65
2018-06-10T16:56:39.481Z,5.20
2018-06-10T16:59:07.731Z,7.08
2018-06-10T17:01:35.977Z,5.10
2018-06-10T17:04:04.272Z,4.67
2018-06-10T17:06:32.510Z,5.58
2018-06-10T17:09:00.854Z,5.17
2018-06-10T17:11:29.189Z,5.00
2018-06-10T17:13:57.459Z,9.13
2018-06-10T17:16:25.770Z,5.50
2018-06-10T17:18:54.058Z,5.40
2018-06-10T17:21:22.453Z,5.60
2018-06-10T17:23:50.778Z,6.55
2018-06-10T17:26:19.130Z,6.05
2018-06-10T17:28:47.445Z,6.40
2018-06-10T17:31:15.658Z,6.70
2018-06-10T17:33:43.929Z,6.78
2018-06-10T17:36:12.224Z,6.28
2018-06-10T17:38:40.462Z,6.20
2018-06-10T17:41:08.864Z,6.60
2018-06-10T17:43:37.093Z,6.20
2018-06-10T17:46:05.498Z,6.92
2018-06-10T17:48:33.797Z,6.58
2018-06-10T17:51:02.068Z,7.20
2018-06-10T17:53:30.491Z,6.37
2018-06-10T17:55:58.948Z,9.80
2018-06-10T17:58:27.314Z,6.53
2018-06-10T18:00:55.644Z,6.10
2018-06-10T18:03:23.960Z,7.83
2018-06-10T18:05:52.206Z,8.50
2018-06-10T18:08:20.460Z,5.45
2018-06-10T18:10:48.817Z,5.35
2018-06-10T18:13:17.147Z,5.70
2018-06-10T18:15:45.449Z,5.10
2018-06-10T18:18:13.757Z,4.95
2018-06-10T18:20:41.995Z,5.28
2018-06-10T18:23:10.265Z,5.10
2018-06-10T18:25:38.617Z,4.85
2018-06-10T18:28:07.500Z,5.05
2018-06-10T18:30:35.861Z,5.67
2018-06-10T18:33:04.481Z,5.55
2018-06-10T18:35:32.751Z,4.50
2018-06-10T18:38:01.155Z,4.97
2018-06-10T18:40:29.414Z,4.72
2018-06-10T18:42:57.673Z,4.80
2018-06-10T18:45:26.007Z,7.22
2018-06-10T18:47:54.297Z,8.30
2018-06-10T18:50:22.606Z,5.33
2018-06-10T18:52:50.866Z,7.05
2018-06-10T18:55:19.115Z,6.47
2018-06-10T18:57:47.371Z,5.30
2018-06-10T19:00:15.797Z,5.22
2018-06-10T19:02:44.070Z,9.68
2018-06-10T19:05:12.400Z,8.73
2018-06-10T19:07:40.653Z,5.60
2018-06-10T19:10:08.883Z,5.40
2018-06-10T19:12:37.129Z,5.70
2018-06-10T19:15:05.462Z,8.73
2018-06-10T19:17:33.657Z,6.90
2018-06-10T19:20:01.890Z,7.70
2018-06-10T19:22:30.112Z,13.93
2018-06-10T19:24:58.710Z,6.92
2018-06-10T19:27:27.388Z,6.10
2018-06-10T19:29:56.180Z,5.47
2018-06-10T19:32:24.487Z,7.78
2018-06-10T19:34:53.574Z,6.00
2018-06-10T19:37:21.909Z,6.35
2018-06-10T19:39:50.151Z,5.90
2018-06-10T19:42:18.486Z,6.47
2018-06-10T19:44:46.783Z,6.80
2018-06-10T19:47:15.027Z,6.70
2018-06-10T19:49:43.266Z,6.70
2018-06-10T19:52:11.506Z,7.30
2018-06-10T19:54:39.794Z,7.92
2018-06-10T19:57:08.006Z,7.15
2018-06-10T19:59:36.250Z,6.80
2018-06-10T20:02:04.535Z,7.20
2018-06-10T20:04:36.202Z,7.00
2018-06-10T20:07:04.501Z,6.63
2018-06-10T20:09:32.815Z,7.75
2018-06-10T20:12:01.134Z,8.60
2018-06-10T20:14:29.421Z,6.17
2018-06-10T20:16:57.734Z,7.28
2018-06-10T20:19:26.003Z,7.40
2018-06-10T20:21:54.228Z,6.78
2018-06-10T20:24:22.495Z,7.12
2018-06-10T20:26:50.750Z,7.20
2018-06-10T20:29:18.998Z,6.80
2018-06-10T20:31:47.293Z,6.30
2018-06-10T20:34:15.590Z,7.22
2018-06-10T20:36:43.873Z,6.80
2018-06-10T20:39:12.113Z,5.90
2018-06-10T20:41:40.397Z,7.17
2018-06-10T20:44:08.796Z,8.53
2018-06-10T20:46:37.157Z,7.03
2018-06-10T20:49:05.411Z,7.00
2018-06-10T20:51:33.650Z,8.15
2018-06-10T20:54:01.935Z,8.10
2018-06-10T20:56:30.195Z,6.50
2018-06-10T20:58:58.421Z,7.20
2018-06-10T21:01:26.679Z,7.28
2018-06-10T21:03:56.338Z,6.50
2018-06-10T21:06:25.168Z,8.08
2018-06-10T21:08:53.443Z,7.35
2018-06-10T21:11:21.686Z,7.20
2018-06-10T21:13:49.925Z,7.17
2018-06-10T21:16:18.164Z,7.90
2018-06-10T21:18:46.435Z,9.93
2018-06-10T21:21:14.669Z,8.30
2018-06-10T21:23:43.016Z,7.63
2018-06-10T21:26:11.291Z,7.40
2018-06-10T21:28:39.781Z,7.45
2018-06-10T21:31:08.497Z,7.10
2018-06-10T21:33:36.918Z,7.78
2018-06-10T21:36:05.494Z,7.85
2018-06-10T21:38:33.735Z,9.15
2018-06-10T21:41:01.954Z,8.50
2018-06-10T21:43:30.215Z,7.22
2018-06-10T21:45:58.465Z,8.53
2018-06-10T21:48:26.683Z,7.85
2018-06-10T21:50:54.930Z,10.28
2018-06-10T21:53:23.129Z,8.20
2018-06-10T21:55:51.425Z,8.00
2018-06-10T21:58:19.682Z,8.50
2018-06-10T22:00:47.985Z,8.35
2018-06-10T22:03:16.229Z,8.70
2018-06-10T22:05:44.429Z,9.93
2018-06-10T22:08:12.660Z,8.58
2018-06-10T22:10:40.857Z,8.43
2018-06-10T22:13:09.112Z,8.48
2018-06-10T22:15:37.410Z,7.67
2018-06-10T22:18:05.637Z,7.60
2018-06-10T22:22:59.274Z,8.68
2018-06-10T22:25:27.524Z,8.70
2018-06-10T22:27:55.746Z,8.75
2018-06-10T22:30:24.005Z,8.73
2018-06-10T22:32:52.235Z,9.33
2018-06-10T22:35:20.441Z,9.77
2018-06-10T22:37:48.662Z,9.78
2018-06-10T22:40:16.875Z,9.23
2018-06-10T22:42:45.127Z,9.40
2018-06-10T22:45:13.378Z,9.38
2018-06-10T22:47:41.607Z,9.50
2018-06-10T22:50:09.884Z,9.93
2018-06-10T22:52:38.076Z,11.10
2018-06-10T22:55:06.331Z,9.07
2018-06-10T22:57:34.545Z,8.05
2018-06-10T23:00:02.795Z,9.25
2018-06-10T23:02:31.045Z,8.90
2018-06-10T23:04:59.267Z,8.93
2018-06-10T23:07:27.513Z,10.28
2018-06-10T23:09:55.722Z,9.50
2018-06-10T23:12:23.957Z,8.70
2018-06-10T23:14:52.227Z,9.83
2018-06-10T23:17:20.437Z,8.70
2018-06-10T23:19:48.698Z,8.40
2018-06-10T23:22:16.906Z,8.45
2018-06-10T23:24:45.145Z,12.55
2018-06-10T23:27:13.457Z,8.48
2018-06-10T23:29:41.661Z,8.70
2018-06-10T23:32:09.909Z,8.10
2018-06-10T23:34:38.112Z,7.83
2018-06-10T23:37:06.358Z,9.10
2018-06-10T23:39:34.605Z,8.18
2018-06-10T23:42:02.799Z,8.83
2018-06-10T23:44:31.036Z,9.00
2018-06-10T23:46:59.216Z,8.77
2018-06-10T23:49:27.467Z,9.33
2018-06-10T23:51:55.726Z,8.90
2018-06-10T23:54:23.930Z,8.50
2018-06-10T23:56:52.186Z,8.10
2018-06-10T23:59:20.375Z,7.78
